• Join FlightAware (Why Join?)
  • Login
  • US Flag 
06:20AM EDT


 

Airport Tracker/Info


-or-


 

Live Flight TrackerFlight Track Log ✈ EGF3222 ✈ 25-Apr-2013 ✈ KDFW - KMSN

Flight Track Log - Related Links

Times and Time Zones

All times are in EDT time to prevent confusion due to time zone crossing. See the EGF3222 flight status page for this flight to view local times or setup timezone preferences in your user account.

Time Position Orientation Groundspeed Altitude Reporting Facility
EDT Latitude Longitude Course Direction KTS MPH feet Rate Location/Type
09:51AM 32.8833 -97.0333 357° North 167 192 1,600  Level Dallas / Fort Worth TRACON
09:52AM 32.8333 -97.0167 164° South 210 242 4,100 2,340 Climbing Dallas / Fort Worth TRACON
09:53AM 32.8310 -96.8038 10° North  Level FlightAware Approximate
09:53AM 32.7833 -96.9833 151° Southeast 244 281 6,400  Level Dallas / Fort Worth TRACON
09:54AM 32.9467 -96.8000 North  Level FlightAware Approximate
09:54AM 32.7667 -96.9000 103° East 278 320 8,500  Level Dallas / Fort Worth TRACON
09:55AM 33.0626 -96.8000 North  Level FlightAware Approximate
09:56AM 33.1784 -96.8070 357° North  Level FlightAware Approximate
09:56AM 32.8800 -96.8097 34° Northeast 279 321 11,700  Level Fort Worth Center
09:57AM 32.9656 -96.8117 359° North 303 349 13,100 1,500 Climbing Fort Worth Center
09:58AM 33.0742 -96.8136 359° North 336 387 14,700 1,440 Climbing Fort Worth Center
09:59AM 33.1681 -96.8153 359° North 362 417 16,100 1,560 Climbing Fort Worth Center
10:00AM 33.2786 -96.8194 358° North 362 417 17,900 1,440 Climbing Fort Worth Center
10:01AM 33.3683 -96.8214 359° North 364 419 19,000 1,440 Climbing Fort Worth Center
10:02AM 33.4811 -96.8083 North 364 419 20,800 1,620 Climbing Fort Worth Center
10:03AM 33.5664 -96.7528 28° Northeast 380 437 22,300 1,080 Climbing Fort Worth Center
10:04AM 33.6744 -96.6797 29° Northeast 391 450 23,000 300 Climbing Fort Worth Center
10:05AM 33.7744 -96.6164 28° Northeast 422 486 23,000  Level Fort Worth Center
10:06AM 33.8867 -96.5453 28° Northeast 437 503 23,000 540 Level Fort Worth Center
10:07AM 33.9925 -96.4767 28° Northeast 442 509 24,100 1,140 Climbing Fort Worth Center
10:08AM 34.0900 -96.4128 28° Northeast 437 503 25,300 1,380 Climbing Fort Worth Center
10:09AM 34.1917 -96.3239 36° Northeast 420 483 26,900 1,500 Climbing Fort Worth Center
10:10AM 34.2911 -96.2472 32° Northeast 420 483 28,300 1,380 Climbing Fort Worth Center
10:11AM 34.3883 -96.1603 36° Northeast 420 483 29,700 1,380 Climbing Fort Worth Center
10:12AM 34.4856 -96.0833 33° Northeast 420 483 31,100 1,320 Climbing Fort Worth Center
10:13AM 34.5847 -95.9986 35° Northeast 420 483 32,400 1,200 Climbing Fort Worth Center
10:14AM 34.6861 -95.9161 34° Northeast 425 489 33,600 1,080 Climbing Fort Worth Center
10:15AM 34.7894 -95.8333 33° Northeast 432 497 34,600 660 Climbing Fort Worth Center
10:16AM 34.9133 -95.7450 30° Northeast 444 511 35,000 180 Climbing Fort Worth Center
10:17AM 35.0269 -95.6692 29° Northeast 454 522 35,000  Level Fort Worth Center
10:18AM 35.1408 -95.5933 29° Northeast 459 528 35,000 300 Level Fort Worth Center
10:20AM 35.3428 -95.4556 29° Northeast 460 529 35,900 540 Climbing Kansas City Center
10:21AM 35.4589 -95.3808 28° Northeast 469 540 36,700 540 Climbing Memphis Center
10:22AM 35.5725 -95.3061 28° Northeast 464 534 37,000 120 Climbing Memphis Center
10:23AM 35.6839 -95.2311 29° Northeast 464 534 37,000  Level Memphis Center
10:24AM 35.7919 -95.1550 30° Northeast 459 528 37,000  Level Kansas City Center
10:25AM 35.9039 -95.0792 29° Northeast 459 528 37,000  Level Kansas City Center
10:26AM 36.0378 -94.9875 29° Northeast 460 529 37,000  Level Kansas City Center
10:27AM 36.1511 -94.9117 28° Northeast 463 533 37,000  Level Kansas City Center
10:28AM 36.2631 -94.8347 29° Northeast 464 534 37,000  Level Kansas City Center
10:29AM 36.3742 -94.7575 29° Northeast 461 531 37,000  Level Kansas City Center
10:30AM 36.4833 -94.6828 29° Northeast 454 522 37,000  Level Kansas City Center
10:31AM 36.6153 -94.5919 29° Northeast 453 521 37,000  Level Kansas City Center
10:32AM 36.7258 -94.5156 29° Northeast 454 522 37,000  Level Kansas City Center
10:33AM 36.8372 -94.4367 30° Northeast 459 528 37,000  Level Kansas City Center
10:34AM 36.9481 -94.3578 30° Northeast 458 527 37,000  Level Kansas City Center
10:35AM 37.0578 -94.2733 32° Northeast 461 531 37,000  Level Kansas City Center
10:36AM 37.1672 -94.1914 31° Northeast 459 528 37,000  Level Kansas City Center
10:37AM 37.2758 -94.1081 31° Northeast 457 526 37,000  Level Kansas City Center
10:38AM 37.3978 -94.0169 31° Northeast 460 529 37,000  Level Kansas City Center
10:39AM 37.5069 -93.9336 31° Northeast 458 527 37,000  Level Kansas City Center
10:40AM 37.6172 -93.8500 31° Northeast 459 528 37,000  Level Kansas City Center
10:41AM 37.7267 -93.7667 31° Northeast 457 526 37,000  Level Kansas City Center
10:42AM 37.8581 -93.6653 31° Northeast 458 527 37,000  Level Kansas City Center
10:43AM 37.9667 -93.5808 31° Northeast 457 526 37,000  Level Kansas City Center
10:44AM 38.0747 -93.4969 31° Northeast 453 521 37,000  Level Kansas City Center
10:45AM 38.1828 -93.4128 31° Northeast 452 520 37,000  Level Kansas City Center
10:46AM 38.2897 -93.3292 32° Northeast 450 518 37,000  Level Kansas City Center
10:48AM 38.3956 -93.2458 32° Northeast 446 513 37,000  Level Kansas City Center
10:49AM 38.5014 -93.1611 32° Northeast 445 512 37,000  Level Kansas City Center
10:50AM 38.6075 -93.0775 32° Northeast 445 512 37,000  Level Kansas City Center
10:51AM 38.7375 -92.9736 32° Northeast 450 518 37,000  Level Kansas City Center
10:52AM 38.8425 -92.8878 32° Northeast 446 513 37,000  Level Kansas City Center
10:53AM 38.9503 -92.8025 32° Northeast 449 517 37,000  Level Kansas City Center
10:54AM 39.0556 -92.7183 32° Northeast 446 513 37,000  Level Kansas City Center
10:55AM 39.1600 -92.6339 32° Northeast 442 509 37,000  Level Kansas City Center
10:56AM 39.2706 -92.5444 32° Northeast 441 507 37,000  Level Kansas City Center
10:57AM 39.3736 -92.4628 31° Northeast 439 505 37,000  Level Kansas City Center
10:58AM 39.4764 -92.3800 32° Northeast 439 505 37,000  Level Kansas City Center
10:59AM 39.5803 -92.2958 32° Northeast 442 509 37,000  Level Kansas City Center
11:00AM 39.7064 -92.1917 32° Northeast 448 516 37,000  Level Kansas City Center
11:01AM 39.8108 -92.1056 32° Northeast 450 518 37,000  Level Kansas City Center
11:02AM 39.9136 -92.0189 33° Northeast 448 516 37,000  Level Kansas City Center
11:03AM 40.0167 -91.9344 32° Northeast 445 512 37,000  Level Kansas City Center
11:04AM 40.1419 -91.8311 32° Northeast 447 514 37,000  Level Kansas City Center
11:05AM 40.2439 -91.7453 33° Northeast 444 511 37,000  Level Kansas City Center
11:06AM 40.3456 -91.6583 33° Northeast 440 506 37,000  Level Kansas City Center
11:07AM 40.4294 -91.5889 32° Northeast 445 512 37,000  Level Chicago Center
11:08AM 40.5325 -91.5014 33° Northeast 446 513 37,000  Level Chicago Center
11:09AM 40.6353 -91.4142 33° Northeast 445 512 37,000  Level Chicago Center
11:10AM 40.7375 -91.3272 33° Northeast 442 509 37,000 -720 Level Chicago Center
11:11AM 40.8558 -91.2267 33° Northeast 442 509 35,600 -1,020 Descending Chicago Center
11:12AM 40.9592 -91.1392 33° Northeast 439 505 35,000 -300 Descending Chicago Center
11:13AM 41.0614 -91.0508 33° Northeast 438 504 35,000  Level Chicago Center
11:14AM 41.1647 -90.9608 33° Northeast 441 507 35,000 -240 Level Chicago Center
11:15AM 41.2678 -90.8703 33° Northeast 444 511 34,600 -600 Descending Chicago Center
11:16AM 41.3689 -90.7828 33° Northeast 437 503 33,800 -1,020 Descending Chicago Center
11:17AM 41.4753 -90.6906 33° Northeast 449 517 32,500 -2,100 Descending Chicago Center
11:18AM 41.6039 -90.5772 33° Northeast 459 528 29,500 -2,700 Descending Chicago Center
11:19AM 41.7067 -90.4878 33° Northeast 443 510 27,000 -2,160 Descending Chicago Center
11:20AM 41.8175 -90.4000 31° Northeast 443 510 25,100 -1,680 Descending Chicago Center
11:21AM 41.9231 -90.3169 30° Northeast 442 509 23,600 -1,440 Descending Chicago Center
11:22AM 42.0258 -90.2367 30° Northeast 432 497 22,200 -1,260 Descending Chicago Center
11:23AM 42.1244 -90.1581 31° Northeast 420 483 21,000 -600 Descending Chicago Center
11:24AM 42.2258 -90.0781 30° Northeast 423 487 21,000 -60 Level Chicago Center
11:25AM 42.3428 -89.9833 31° Northeast 412 474 20,900 -1,560 Descending Chicago Center
11:26AM 42.4397 -89.9069 30° Northeast 393 452 17,800 -3,360 Descending Chicago Center
11:27AM 42.5297 -89.8336 31° Northeast 382 440 14,000 -3,240 Descending Chicago Center
11:29AM 42.6158 -89.7639 31° Northeast 366 421 11,200 -1,440 Descending Chicago Center
11:30AM 42.6944 -89.6997 31° Northeast 337 388 11,100 -120 Descending Chicago Center
11:31AM 42.7728 -89.6372 30° Northeast 328 377 11,000 -1,080 Descending Chicago Center
11:32AM 42.8483 -89.5753 31° Northeast 276 318 9,000 -2,040 Descending Chicago Center
11:33AM 42.8725 -89.4872 69° East 279 321 6,900 -1,740 Descending Chicago Center
11:34AM 42.8806 -89.3903 83° East 264 304 5,500 -960 Descending Chicago Center
11:35AM 42.9403 -89.3575 22° Northeast 237 273 5,000 -540 Descending Chicago Center